aviador You're here:

KASD Decoded Metar

SLIDELL 22 in LA, USA
Report Time2017-03-23 23:53:00
UTC Time2017-03-24 00:02:11
Flight Rules mvfr MVFR
Wind110° at 08 kt
W.Decomp.*RWY 18: 2.5 kt HW 7.6 kt LCW
W.Rank110° ranks 19
Current wind is above 110° avg. (5.7)
Visibility9999 m
Phenomena:N/A
Clouds:Broken 018 Hf
Expected CloudBase > 1,600 ft AGL from Temp-Dew spread
Ceiling1,800 ft
Temp22°C (ISA +7)
Dew Point18°C (78% RH)
AAT21.9°C
QNH1022 hPa
Density Alt823 ft
Elevation30 ft
Report Wrong Elevation
Raw Report
METAR KASD 232353Z AUTO 11008KT 9SM BKN018 22/18 A3019 RMK AO2
SLP223 T02220178 10272 20222 53006=

Extra information for KASD:More info

Metar Taf Metar & Taf Last 4 Metars F.Rules Stats Wind Profile Meteogram Temp Stats Airport Information Weather charts Add Link Nearby VenuesMetar ALERT Operation Metar Decoded Social comments

AIRNAV info for KASD